sensor_id;sensor_type;location;lat;lon;timestamp;pressure;altitude;pressure_sealevel;temperature;humidity
71149;BME280;59072;42.144;25.200;2023-05-23T00:00:54;99784.69;;;15.31;100.00
71149;BME280;59072;42.144;25.200;2023-05-23T00:03:20;99775.78;;;15.25;100.00
71149;BME280;59072;42.144;25.200;2023-05-23T00:05:47;99778.53;;;15.31;100.00
71149;BME280;59072;42.144;25.200;2023-05-23T00:08:13;99780.56;;;15.18;100.00
71149;BME280;59072;42.144;25.200;2023-05-23T00:10:38;99768.41;;;15.11;100.00
71149;BME280;59072;42.144;25.200;2023-05-23T00:13:03;99764.94;;;15.10;100.00
71149;BME280;59072;42.144;25.200;2023-05-23T00:15:29;99776.84;;;14.92;100.00
71149;BME280;59072;42.144;25.200;2023-05-23T00:17:55;99759.94;;;14.92;100.00
71149;BME280;59072;42.144;25.200;2023-05-23T00:20:20;99758.38;;;14.96;100.00
71149;BME280;59072;42.144;25.200;2023-05-23T00:22:47;99754.09;;;15.00;100.00
71149;BME280;59072;42.144;25.200;2023-05-23T00:25:12;99753.16;;;14.84;100.00
71149;BME280;59072;42.144;25.200;2023-05-23T00:27:38;99754.94;;;14.73;100.00
71149;BME280;59072;42.144;25.200;2023-05-23T00:30:03;99740.97;;;14.71;100.00
71149;BME280;59072;42.144;25.200;2023-05-23T00:32:29;99739.09;;;14.50;100.00
71149;BME280;59072;42.144;25.200;2023-05-23T00:34:54;99755.56;;;14.58;100.00
71149;BME280;59072;42.144;25.200;2023-05-23T00:37:21;99744.34;;;14.39;100.00
71149;BME280;59072;42.144;25.200;2023-05-23T00:39:47;99755.75;;;14.52;100.00
71149;BME280;59072;42.144;25.200;2023-05-23T00:42:13;99755.72;;;14.46;100.00
71149;BME280;59072;42.144;25.200;2023-05-23T00:44:38;99754.22;;;14.56;100.00
71149;BME280;59072;42.144;25.200;2023-05-23T00:47:04;99758.00;;;14.60;100.00
71149;BME280;59072;42.144;25.200;2023-05-23T00:49:31;99748.25;;;14.54;100.00
71149;BME280;59072;42.144;25.200;2023-05-23T00:51:57;99751.59;;;14.61;100.00
71149;BME280;59072;42.144;25.200;2023-05-23T00:54:28;99751.84;;;14.59;100.00
71149;BME280;59072;42.144;25.200;2023-05-23T00:56:55;99759.25;;;14.52;100.00
71149;BME280;59072;42.144;25.200;2023-05-23T00:59:22;99763.38;;;14.60;100.00
71149;BME280;59072;42.144;25.200;2023-05-23T01:01:49;99756.00;;;14.50;100.00
71149;BME280;59072;42.144;25.200;2023-05-23T01:04:15;99741.66;;;14.39;100.00
71149;BME280;59072;42.144;25.200;2023-05-23T01:06:41;99750.34;;;14.46;100.00
71149;BME280;59072;42.144;25.200;2023-05-23T01:09:15;99753.34;;;14.28;100.00
71149;BME280;59072;42.144;25.200;2023-05-23T01:11:53;99763.25;;;14.27;100.00
71149;BME280;59072;42.144;25.200;2023-05-23T01:14:31;99731.28;;;14.21;100.00
71149;BME280;59072;42.144;25.200;2023-05-23T01:17:11;99743.72;;;14.32;100.00
71149;BME280;59072;42.144;25.200;2023-05-23T01:19:59;99745.59;;;14.32;100.00
71149;BME280;59072;42.144;25.200;2023-05-23T01:22:53;99751.59;;;14.17;100.00
71149;BME280;59072;42.144;25.200;2023-05-23T01:25:43;99752.41;;;13.95;100.00
71149;BME280;59072;42.144;25.200;2023-05-23T01:28:15;99736.44;;;14.05;100.00
71149;BME280;59072;42.144;25.200;2023-05-23T01:30:43;99752.78;;;14.26;100.00
71149;BME280;59072;42.144;25.200;2023-05-23T01:33:10;99750.97;;;14.32;100.00
71149;BME280;59072;42.144;25.200;2023-05-23T01:35:38;99740.81;;;14.12;100.00
71149;BME280;59072;42.144;25.200;2023-05-23T01:38:04;99745.16;;;14.18;100.00
71149;BME280;59072;42.144;25.200;2023-05-23T01:40:30;99735.97;;;14.09;100.00
71149;BME280;59072;42.144;25.200;2023-05-23T01:42:55;99720.94;;;13.85;100.00
71149;BME280;59072;42.144;25.200;2023-05-23T01:45:25;99729.47;;;14.04;100.00
71149;BME280;59072;42.144;25.200;2023-05-23T01:47:53;99735.88;;;14.03;100.00
71149;BME280;59072;42.144;25.200;2023-05-23T01:50:18;99733.19;;;14.03;100.00
71149;BME280;59072;42.144;25.200;2023-05-23T01:52:46;99739.06;;;14.00;100.00
71149;BME280;59072;42.144;25.200;2023-05-23T01:55:13;99730.34;;;13.88;100.00
71149;BME280;59072;42.144;25.200;2023-05-23T01:57:40;99716.47;;;13.52;100.00
71149;BME280;59072;42.144;25.200;2023-05-23T02:00:06;99732.94;;;13.83;100.00
71149;BME280;59072;42.144;25.200;2023-05-23T02:02:35;99735.25;;;13.74;100.00
71149;BME280;59072;42.144;25.200;2023-05-23T02:05:00;99735.38;;;13.84;100.00
71149;BME280;59072;42.144;25.200;2023-05-23T02:07:26;99720.28;;;13.78;100.00
71149;BME280;59072;42.144;25.200;2023-05-23T02:09:51;99718.84;;;13.71;100.00
71149;BME280;59072;42.144;25.200;2023-05-23T02:12:17;99738.88;;;13.46;100.00
71149;BME280;59072;42.144;25.200;2023-05-23T02:14:42;99727.13;;;13.47;100.00
71149;BME280;59072;42.144;25.200;2023-05-23T02:17:08;99724.63;;;13.40;100.00
71149;BME280;59072;42.144;25.200;2023-05-23T02:19:36;99725.03;;;13.32;100.00
71149;BME280;59072;42.144;25.200;2023-05-23T02:22:02;99732.00;;;13.33;100.00
71149;BME280;59072;42.144;25.200;2023-05-23T02:24:28;99721.91;;;13.23;100.00
71149;BME280;59072;42.144;25.200;2023-05-23T02:26:54;99743.22;;;13.30;100.00
71149;BME280;59072;42.144;25.200;2023-05-23T02:29:19;99754.44;;;13.15;100.00
71149;BME280;59072;42.144;25.200;2023-05-23T02:31:45;99757.69;;;13.17;100.00
71149;BME280;59072;42.144;25.200;2023-05-23T02:34:10;99751.44;;;12.95;100.00
71149;BME280;59072;42.144;25.200;2023-05-23T02:36:36;99750.06;;;13.09;100.00
71149;BME280;59072;42.144;25.200;2023-05-23T02:39:02;99751.84;;;13.03;100.00
71149;BME280;59072;42.144;25.200;2023-05-23T02:41:28;99762.63;;;12.92;100.00
71149;BME280;59072;42.144;25.200;2023-05-23T02:43:54;99742.59;;;12.77;100.00
71149;BME280;59072;42.144;25.200;2023-05-23T02:46:19;99752.22;;;12.78;100.00
71149;BME280;59072;42.144;25.200;2023-05-23T02:48:45;99742.72;;;12.71;100.00
71149;BME280;59072;42.144;25.200;2023-05-23T02:51:10;99753.66;;;12.98;100.00
71149;BME280;59072;42.144;25.200;2023-05-23T02:53:38;99743.41;;;13.12;100.00
71149;BME280;59072;42.144;25.200;2023-05-23T02:56:03;99758.53;;;13.35;100.00
71149;BME280;59072;42.144;25.200;2023-05-23T02:58:29;99762.13;;;13.40;100.00
71149;BME280;59072;42.144;25.200;2023-05-23T03:00:54;99760.38;;;13.17;100.00
71149;BME280;59072;42.144;25.200;2023-05-23T03:03:20;99754.22;;;13.00;100.00
71149;BME280;59072;42.144;25.200;2023-05-23T03:05:46;99762.06;;;13.23;100.00
71149;BME280;59072;42.144;25.200;2023-05-23T03:08:11;99753.16;;;13.01;100.00
71149;BME280;59072;42.144;25.200;2023-05-23T03:10:36;99748.06;;;12.71;100.00
71149;BME280;59072;42.144;25.200;2023-05-23T03:13:02;99748.97;;;12.76;100.00
71149;BME280;59072;42.144;25.200;2023-05-23T03:15:27;99755.25;;;12.99;100.00
71149;BME280;59072;42.144;25.200;2023-05-23T03:17:53;99748.75;;;12.95;100.00
71149;BME280;59072;42.144;25.200;2023-05-23T03:20:18;99753.88;;;13.13;100.00
71149;BME280;59072;42.144;25.200;2023-05-23T03:22:43;99758.84;;;13.04;100.00
71149;BME280;59072;42.144;25.200;2023-05-23T03:25:09;99765.75;;;13.51;100.00
71149;BME280;59072;42.144;25.200;2023-05-23T03:27:35;99769.31;;;13.23;100.00
71149;BME280;59072;42.144;25.200;2023-05-23T03:30:02;99742.84;;;13.26;100.00
71149;BME280;59072;42.144;25.200;2023-05-23T03:32:27;99759.72;;;13.27;100.00
71149;BME280;59072;42.144;25.200;2023-05-23T03:34:53;99765.03;;;13.39;100.00
71149;BME280;59072;42.144;25.200;2023-05-23T03:37:18;99767.47;;;13.40;100.00
71149;BME280;59072;42.144;25.200;2023-05-23T03:39:44;99768.94;;;13.31;100.00
71149;BME280;59072;42.144;25.200;2023-05-23T03:42:09;99763.69;;;13.58;100.00
71149;BME280;59072;42.144;25.200;2023-05-23T03:44:35;99763.81;;;13.85;100.00
71149;BME280;59072;42.144;25.200;2023-05-23T03:47:00;99770.97;;;13.80;100.00
71149;BME280;59072;42.144;25.200;2023-05-23T03:49:26;99766.41;;;13.80;100.00
71149;BME280;59072;42.144;25.200;2023-05-23T03:51:51;99762.69;;;13.81;100.00
71149;BME280;59072;42.144;25.200;2023-05-23T03:54:16;99766.94;;;13.99;100.00
71149;BME280;59072;42.144;25.200;2023-05-23T03:56:42;99769.31;;;13.96;100.00
71149;BME280;59072;42.144;25.200;2023-05-23T03:59:07;99763.81;;;14.07;100.00
71149;BME280;59072;42.144;25.200;2023-05-23T04:01:33;99766.06;;;14.16;100.00
71149;BME280;59072;42.144;25.200;2023-05-23T04:03:58;99744.13;;;13.97;100.00
71149;BME280;59072;42.144;25.200;2023-05-23T04:06:24;99762.78;;;14.09;100.00
71149;BME280;59072;42.144;25.200;2023-05-23T04:08:50;99769.06;;;14.19;100.00
71149;BME280;59072;42.144;25.200;2023-05-23T04:11:15;99762.78;;;14.31;100.00
71149;BME280;59072;42.144;25.200;2023-05-23T04:13:41;99774.97;;;14.43;100.00
71149;BME280;59072;42.144;25.200;2023-05-23T04:16:09;99771.41;;;14.38;100.00
71149;BME280;59072;42.144;25.200;2023-05-23T04:18:35;99773.09;;;14.66;100.00
71149;BME280;59072;42.144;25.200;2023-05-23T04:21:03;99772.06;;;14.67;100.00
71149;BME280;59072;42.144;25.200;2023-05-23T04:23:28;99790.88;;;14.72;100.00
71149;BME280;59072;42.144;25.200;2023-05-23T04:25:54;99781.22;;;14.71;100.00
71149;BME280;59072;42.144;25.200;2023-05-23T04:28:22;99788.09;;;14.62;100.00
71149;BME280;59072;42.144;25.200;2023-05-23T04:30:47;99781.78;;;14.73;100.00
71149;BME280;59072;42.144;25.200;2023-05-23T04:33:17;99783.94;;;14.76;100.00
71149;BME280;59072;42.144;25.200;2023-05-23T04:35:43;99787.81;;;14.85;100.00
71149;BME280;59072;42.144;25.200;2023-05-23T04:38:08;99795.88;;;14.85;100.00
71149;BME280;59072;42.144;25.200;2023-05-23T04:40:34;99786.88;;;15.02;100.00
71149;BME280;59072;42.144;25.200;2023-05-23T04:43:00;99785.22;;;14.96;100.00
71149;BME280;59072;42.144;25.200;2023-05-23T04:45:25;99798.22;;;15.09;100.00
71149;BME280;59072;42.144;25.200;2023-05-23T04:47:51;99787.47;;;15.09;100.00
71149;BME280;59072;42.144;25.200;2023-05-23T04:50:19;99789.50;;;14.97;100.00
71149;BME280;59072;42.144;25.200;2023-05-23T04:52:46;99793.16;;;15.13;100.00
71149;BME280;59072;42.144;25.200;2023-05-23T04:55:11;99779.31;;;14.99;100.00
71149;BME280;59072;42.144;25.200;2023-05-23T04:57:37;99785.00;;;15.02;100.00
71149;BME280;59072;42.144;25.200;2023-05-23T05:00:03;99797.75;;;15.17;100.00
71149;BME280;59072;42.144;25.200;2023-05-23T05:02:35;99798.22;;;15.09;100.00
71149;BME280;59072;42.144;25.200;2023-05-23T05:05:02;99792.59;;;15.11;100.00
71149;BME280;59072;42.144;25.200;2023-05-23T05:07:29;99806.72;;;15.01;100.00
71149;BME280;59072;42.144;25.200;2023-05-23T05:09:54;99810.59;;;15.10;100.00
71149;BME280;59072;42.144;25.200;2023-05-23T05:12:19;99814.63;;;15.13;100.00
71149;BME280;59072;42.144;25.200;2023-05-23T05:14:45;99801.84;;;15.25;100.00
71149;BME280;59072;42.144;25.200;2023-05-23T05:17:10;99818.34;;;15.39;100.00
71149;BME280;59072;42.144;25.200;2023-05-23T05:19:37;99805.00;;;15.54;100.00
71149;BME280;59072;42.144;25.200;2023-05-23T05:22:02;99816.31;;;15.56;100.00
71149;BME280;59072;42.144;25.200;2023-05-23T05:24:28;99810.69;;;15.58;100.00
71149;BME280;59072;42.144;25.200;2023-05-23T05:26:54;99825.56;;;15.71;100.00
71149;BME280;59072;42.144;25.200;2023-05-23T05:29:20;99825.34;;;15.72;100.00
71149;BME280;59072;42.144;25.200;2023-05-23T05:31:45;99834.16;;;15.67;100.00
71149;BME280;59072;42.144;25.200;2023-05-23T05:34:11;99828.66;;;15.52;100.00
71149;BME280;59072;42.144;25.200;2023-05-23T05:36:37;99825.41;;;15.50;100.00
71149;BME280;59072;42.144;25.200;2023-05-23T05:39:10;99829.94;;;15.44;100.00
71149;BME280;59072;42.144;25.200;2023-05-23T05:41:35;99828.91;;;15.51;100.00
71149;BME280;59072;42.144;25.200;2023-05-23T05:44:00;99834.81;;;15.53;100.00
71149;BME280;59072;42.144;25.200;2023-05-23T05:46:26;99839.69;;;15.56;100.00
71149;BME280;59072;42.144;25.200;2023-05-23T05:48:51;99839.63;;;15.78;100.00
71149;BME280;59072;42.144;25.200;2023-05-23T05:51:17;99829.94;;;15.77;100.00
71149;BME280;59072;42.144;25.200;2023-05-23T05:53:42;99832.50;;;15.99;100.00
71149;BME280;59072;42.144;25.200;2023-05-23T05:56:08;99836.63;;;16.22;100.00
71149;BME280;59072;42.144;25.200;2023-05-23T05:58:33;99833.44;;;16.30;100.00
71149;BME280;59072;42.144;25.200;2023-05-23T06:00:58;99829.78;;;16.52;100.00
71149;BME280;59072;42.144;25.200;2023-05-23T06:03:24;99837.09;;;16.66;100.00
71149;BME280;59072;42.144;25.200;2023-05-23T06:05:51;99845.00;;;16.94;100.00
71149;BME280;59072;42.144;25.200;2023-05-23T06:08:16;99850.69;;;17.02;100.00
71149;BME280;59072;42.144;25.200;2023-05-23T06:10:42;99849.28;;;16.90;100.00
71149;BME280;59072;42.144;25.200;2023-05-23T06:13:07;99847.16;;;16.92;100.00
71149;BME280;59072;42.144;25.200;2023-05-23T06:15:33;99844.47;;;17.02;100.00
71149;BME280;59072;42.144;25.200;2023-05-23T06:17:58;99852.56;;;17.02;100.00
71149;BME280;59072;42.144;25.200;2023-05-23T06:20:23;99841.81;;;17.22;100.00
71149;BME280;59072;42.144;25.200;2023-05-23T06:22:49;99846.66;;;17.25;100.00
71149;BME280;59072;42.144;25.200;2023-05-23T06:25:14;99848.84;;;17.29;100.00
71149;BME280;59072;42.144;25.200;2023-05-23T06:27:40;99844.25;;;17.39;100.00
71149;BME280;59072;42.144;25.200;2023-05-23T06:30:06;99849.09;;;17.47;100.00
71149;BME280;59072;42.144;25.200;2023-05-23T06:32:31;99847.75;;;17.71;100.00
71149;BME280;59072;42.144;25.200;2023-05-23T06:39:55;99837.00;;;17.35;100.00
71149;BME280;59072;42.144;25.200;2023-05-23T06:42:21;99839.66;;;17.60;100.00
71149;BME280;59072;42.144;25.200;2023-05-23T06:44:46;99837.22;;;17.74;100.00
71149;BME280;59072;42.144;25.200;2023-05-23T06:47:11;99842.88;;;17.93;100.00
71149;BME280;59072;42.144;25.200;2023-05-23T06:49:37;99824.53;;;17.95;100.00
71149;BME280;59072;42.144;25.200;2023-05-23T06:52:02;99842.56;;;18.15;100.00
71149;BME280;59072;42.144;25.200;2023-05-23T06:54:28;99833.91;;;18.23;100.00
71149;BME280;59072;42.144;25.200;2023-05-23T06:56:53;99836.78;;;18.42;100.00
71149;BME280;59072;42.144;25.200;2023-05-23T06:59:19;99833.84;;;18.39;100.00
71149;BME280;59072;42.144;25.200;2023-05-23T07:01:44;99824.97;;;18.33;100.00
71149;BME280;59072;42.144;25.200;2023-05-23T07:04:10;99822.44;;;18.52;100.00
71149;BME280;59072;42.144;25.200;2023-05-23T07:06:36;99822.59;;;18.71;99.38
71149;BME280;59072;42.144;25.200;2023-05-23T07:09:03;99820.78;;;19.06;97.19
71149;BME280;59072;42.144;25.200;2023-05-23T07:11:29;99804.56;;;19.06;98.73
71149;BME280;59072;42.144;25.200;2023-05-23T07:13:54;99816.28;;;19.31;94.60
71149;BME280;59072;42.144;25.200;2023-05-23T07:16:20;99814.25;;;19.17;97.22
71149;BME280;59072;42.144;25.200;2023-05-23T07:18:45;99807.25;;;19.11;99.36
71149;BME280;59072;42.144;25.200;2023-05-23T07:21:11;99799.22;;;19.01;100.00
71149;BME280;59072;42.144;25.200;2023-05-23T07:23:36;99800.72;;;19.17;96.19
71149;BME280;59072;42.144;25.200;2023-05-23T07:26:01;99818.28;;;19.49;98.80
71149;BME280;59072;42.144;25.200;2023-05-23T07:28:27;99820.81;;;19.75;97.22
71149;BME280;59072;42.144;25.200;2023-05-23T07:30:53;99819.44;;;20.01;91.60
71149;BME280;59072;42.144;25.200;2023-05-23T07:33:19;99825.25;;;20.14;89.64
71149;BME280;59072;42.144;25.200;2023-05-23T07:35:45;99831.53;;;20.09;88.32
71149;BME280;59072;42.144;25.200;2023-05-23T07:38:10;99829.34;;;19.87;90.57
71149;BME280;59072;42.144;25.200;2023-05-23T07:40:36;99822.78;;;19.93;87.68
71149;BME280;59072;42.144;25.200;2023-05-23T07:43:02;99823.47;;;20.04;89.11
71149;BME280;59072;42.144;25.200;2023-05-23T07:45:28;99829.72;;;20.04;89.96
71149;BME280;59072;42.144;25.200;2023-05-23T07:47:53;99826.19;;;20.47;87.99
71149;BME280;59072;42.144;25.200;2023-05-23T07:50:19;99829.41;;;20.73;86.12
71149;BME280;59072;42.144;25.200;2023-05-23T07:52:45;99828.34;;;20.74;89.71
71149;BME280;59072;42.144;25.200;2023-05-23T07:55:10;99818.34;;;20.70;89.13
71149;BME280;59072;42.144;25.200;2023-05-23T07:57:36;99825.25;;;20.62;88.22
71149;BME280;59072;42.144;25.200;2023-05-23T08:00:02;99824.00;;;20.73;90.05
71149;BME280;59072;42.144;25.200;2023-05-23T08:02:29;99809.16;;;21.22;87.30
71149;BME280;59072;42.144;25.200;2023-05-23T08:04:54;99817.84;;;21.05;87.33
71149;BME280;59072;42.144;25.200;2023-05-23T08:07:21;99820.53;;;21.24;88.15
71149;BME280;59072;42.144;25.200;2023-05-23T08:09:47;99821.53;;;21.28;86.74
71149;BME280;59072;42.144;25.200;2023-05-23T08:12:12;99820.72;;;21.47;85.67
71149;BME280;59072;42.144;25.200;2023-05-23T08:14:37;99814.84;;;21.40;84.84
71149;BME280;59072;42.144;25.200;2023-05-23T08:17:03;99803.44;;;21.43;90.32
71149;BME280;59072;42.144;25.200;2023-05-23T08:19:28;99808.88;;;21.57;87.91
71149;BME280;59072;42.144;25.200;2023-05-23T08:21:54;99787.16;;;21.43;90.93
71149;BME280;59072;42.144;25.200;2023-05-23T08:24:20;99806.50;;;21.69;86.01
71149;BME280;59072;42.144;25.200;2023-05-23T08:26:46;99803.91;;;21.92;86.56
71149;BME280;59072;42.144;25.200;2023-05-23T08:29:12;99798.50;;;22.33;86.22
71149;BME280;59072;42.144;25.200;2023-05-23T08:31:37;99802.28;;;22.60;79.70
71149;BME280;59072;42.144;25.200;2023-05-23T08:34:03;99810.44;;;22.60;79.57
71149;BME280;59072;42.144;25.200;2023-05-23T08:36:28;99810.31;;;22.65;75.92
71149;BME280;59072;42.144;25.200;2023-05-23T08:38:54;99801.50;;;22.82;74.99
71149;BME280;59072;42.144;25.200;2023-05-23T08:41:21;99796.69;;;23.15;76.35
71149;BME280;59072;42.144;25.200;2023-05-23T08:43:48;99799.66;;;23.27;62.20
71149;BME280;59072;42.144;25.200;2023-05-23T08:46:14;99793.03;;;23.20;67.28
71149;BME280;59072;42.144;25.200;2023-05-23T08:48:41;99799.53;;;23.10;69.22
71149;BME280;59072;42.144;25.200;2023-05-23T08:51:08;99798.28;;;23.16;73.92
71149;BME280;59072;42.144;25.200;2023-05-23T08:53:35;99799.03;;;23.08;73.87
71149;BME280;59072;42.144;25.200;2023-05-23T08:56:02;99783.88;;;23.16;72.66
71149;BME280;59072;42.144;25.200;2023-05-23T08:58:31;99786.66;;;23.02;69.71
71149;BME280;59072;42.144;25.200;2023-05-23T09:00:58;99783.91;;;23.47;70.44
71149;BME280;59072;42.144;25.200;2023-05-23T09:03:27;99784.69;;;23.70;68.78
71149;BME280;59072;42.144;25.200;2023-05-23T09:05:54;99781.16;;;24.01;64.52
71149;BME280;59072;42.144;25.200;2023-05-23T09:08:20;99784.41;;;24.29;58.55
71149;BME280;59072;42.144;25.200;2023-05-23T09:10:47;99780.84;;;24.11;58.24
71149;BME280;59072;42.144;25.200;2023-05-23T09:13:16;99778.03;;;24.42;56.09
71149;BME280;59072;42.144;25.200;2023-05-23T09:18:25;99781.09;;;25.11;51.53
71149;BME280;59072;42.144;25.200;2023-05-23T09:20:51;99743.41;;;25.21;58.63
71149;BME280;59072;42.144;25.200;2023-05-23T09:23:17;99764.09;;;24.96;54.30
71149;BME280;59072;42.144;25.200;2023-05-23T09:25:47;99767.31;;;25.72;55.60
71149;BME280;59072;42.144;25.200;2023-05-23T09:28:12;99769.66;;;25.52;51.26
71149;BME280;59072;42.144;25.200;2023-05-23T09:30:38;99772.97;;;26.05;52.09
71149;BME280;59072;42.144;25.200;2023-05-23T09:33:03;99780.63;;;26.41;48.46
71149;BME280;59072;42.144;25.200;2023-05-23T09:35:29;99773.09;;;26.38;48.50
71149;BME280;59072;42.144;25.200;2023-05-23T09:37:56;99763.72;;;25.41;47.89
71149;BME280;59072;42.144;25.200;2023-05-23T09:40:28;99769.88;;;25.12;48.82
71149;BME280;59072;42.144;25.200;2023-05-23T09:43:01;99756.69;;;25.14;49.70
71149;BME280;59072;42.144;25.200;2023-05-23T09:45:31;99756.34;;;25.80;48.88
71149;BME280;59072;42.144;25.200;2023-05-23T09:47:57;99763.19;;;26.04;51.81
71149;BME280;59072;42.144;25.200;2023-05-23T09:50:23;99747.84;;;25.82;47.06
71149;BME280;59072;42.144;25.200;2023-05-23T09:52:48;99748.44;;;25.96;44.47
71149;BME280;59072;42.144;25.200;2023-05-23T09:55:15;99750.88;;;25.89;46.87
71149;BME280;59072;42.144;25.200;2023-05-23T09:57:42;99749.13;;;25.46;48.10
71149;BME280;59072;42.144;25.200;2023-05-23T10:00:09;99751.22;;;25.40;48.51
71149;BME280;59072;42.144;25.200;2023-05-23T10:05:30;99742.91;;;26.05;46.14
71149;BME280;59072;42.144;25.200;2023-05-23T10:07:59;99735.94;;;25.48;52.83
71149;BME280;59072;42.144;25.200;2023-05-23T10:10:30;99761.38;;;25.05;54.94
71149;BME280;59072;42.144;25.200;2023-05-23T10:12:58;99758.78;;;24.47;55.48
71149;BME280;59072;42.144;25.200;2023-05-23T10:15:28;99743.88;;;24.27;55.76
71149;BME280;59072;42.144;25.200;2023-05-23T10:18:10;99748.00;;;23.36;61.06
71149;BME280;59072;42.144;25.200;2023-05-23T10:20:38;99750.84;;;22.86;63.70
71149;BME280;59072;42.144;25.200;2023-05-23T10:23:07;99760.47;;;22.33;73.37
71149;BME280;59072;42.144;25.200;2023-05-23T10:25:33;99752.63;;;21.90;77.19
71149;BME280;59072;42.144;25.200;2023-05-23T10:28:01;99751.41;;;21.55;77.77
71149;BME280;59072;42.144;25.200;2023-05-23T10:30:28;99763.66;;;21.19;82.12
71149;BME280;59072;42.144;25.200;2023-05-23T10:32:54;99770.78;;;20.96;87.38
71149;BME280;59072;42.144;25.200;2023-05-23T10:43:19;99762.47;;;20.12;98.93
71149;BME280;59072;42.144;25.200;2023-05-23T10:45:48;99765.31;;;20.01;100.00
71149;BME280;59072;42.144;25.200;2023-05-23T10:48:39;99754.31;;;20.36;100.00
71149;BME280;59072;42.144;25.200;2023-05-23T10:51:07;99765.13;;;20.60;100.00
71149;BME280;59072;42.144;25.200;2023-05-23T10:53:40;99741.31;;;20.76;100.00
71149;BME280;59072;42.144;25.200;2023-05-23T10:56:07;99760.22;;;21.14;100.00
71149;BME280;59072;42.144;25.200;2023-05-23T10:58:33;99751.41;;;21.55;100.00
71149;BME280;59072;42.144;25.200;2023-05-23T11:01:07;99757.34;;;21.71;99.50
71149;BME280;59072;42.144;25.200;2023-05-23T11:12:03;99731.94;;;21.66;97.26
71149;BME280;59072;42.144;25.200;2023-05-23T11:19:37;99758.84;;;22.82;86.01
71149;BME280;59072;42.144;25.200;2023-05-23T11:22:03;99742.88;;;22.67;70.74
71149;BME280;59072;42.144;25.200;2023-05-23T11:32:29;99761.06;;;23.25;76.36
71149;BME280;59072;42.144;25.200;2023-05-23T11:34:58;99769.75;;;23.67;74.39
71149;BME280;59072;42.144;25.200;2023-05-23T11:37:24;99761.03;;;23.48;75.21
71149;BME280;59072;42.144;25.200;2023-05-23T11:39:50;99762.44;;;23.45;70.27
71149;BME280;59072;42.144;25.200;2023-05-23T11:42:15;99768.97;;;23.36;71.99
71149;BME280;59072;42.144;25.200;2023-05-23T11:44:40;99758.88;;;23.67;70.39
71149;BME280;59072;42.144;25.200;2023-05-23T11:47:06;99768.34;;;24.19;62.40
71149;BME280;59072;42.144;25.200;2023-05-23T11:49:36;99769.09;;;24.85;60.17
71149;BME280;59072;42.144;25.200;2023-05-23T11:52:03;99765.53;;;25.29;60.11
71149;BME280;59072;42.144;25.200;2023-05-23T11:54:29;99769.72;;;24.82;61.52
71149;BME280;59072;42.144;25.200;2023-05-23T11:56:54;99765.22;;;24.52;63.98
71149;BME280;59072;42.144;25.200;2023-05-23T11:59:21;99754.03;;;23.96;63.80
71149;BME280;59072;42.144;25.200;2023-05-23T12:01:47;99771.41;;;24.17;61.01
71149;BME280;59072;42.144;25.200;2023-05-23T12:04:12;99758.19;;;24.51;59.58
71149;BME280;59072;42.144;25.200;2023-05-23T12:06:40;99771.66;;;24.56;59.63
71149;BME280;59072;42.144;25.200;2023-05-23T12:09:07;99753.44;;;24.16;61.85
71149;BME280;59072;42.144;25.200;2023-05-23T12:11:35;99771.34;;;24.75;59.87
71149;BME280;59072;42.144;25.200;2023-05-23T12:14:00;99766.19;;;24.91;57.66
71149;BME280;59072;42.144;25.200;2023-05-23T12:16:31;99757.38;;;24.59;63.56
71149;BME280;59072;42.144;25.200;2023-05-23T12:18:57;99751.38;;;23.73;61.32
71149;BME280;59072;42.144;25.200;2023-05-23T12:21:38;99744.88;;;23.52;64.63
71149;BME280;59072;42.144;25.200;2023-05-23T12:24:17;99750.22;;;23.97;59.49
71149;BME280;59072;42.144;25.200;2023-05-23T12:26:54;99730.84;;;25.20;59.81
71149;BME280;59072;42.144;25.200;2023-05-23T12:29:28;99746.16;;;24.69;56.72
71149;BME280;59072;42.144;25.200;2023-05-23T12:31:53;99744.66;;;25.33;56.11
71149;BME280;59072;42.144;25.200;2023-05-23T12:34:20;99747.97;;;25.94;52.08
71149;BME280;59072;42.144;25.200;2023-05-23T12:36:46;99747.59;;;26.04;50.27
71149;BME280;59072;42.144;25.200;2023-05-23T12:39:13;99736.69;;;26.89;51.90
71149;BME280;59072;42.144;25.200;2023-05-23T12:41:43;99737.81;;;26.88;52.66
71149;BME280;59072;42.144;25.200;2023-05-23T12:44:09;99731.03;;;26.31;49.60
71149;BME280;59072;42.144;25.200;2023-05-23T12:46:35;99724.56;;;26.56;48.00
71149;BME280;59072;42.144;25.200;2023-05-23T12:49:01;99708.06;;;26.23;50.83
71149;BME280;59072;42.144;25.200;2023-05-23T12:51:27;99717.81;;;26.54;49.89
71149;BME280;59072;42.144;25.200;2023-05-23T12:53:53;99711.34;;;26.37;50.72
71149;BME280;59072;42.144;25.200;2023-05-23T12:56:19;99721.00;;;26.64;48.33
71149;BME280;59072;42.144;25.200;2023-05-23T12:58:45;99705.53;;;27.14;46.48
71149;BME280;59072;42.144;25.200;2023-05-23T13:01:11;99708.66;;;27.37;46.28
71149;BME280;59072;42.144;25.200;2023-05-23T13:03:36;99706.06;;;27.78;44.68
71149;BME280;59072;42.144;25.200;2023-05-23T13:06:01;99707.69;;;28.03;47.24
71149;BME280;59072;42.144;25.200;2023-05-23T13:08:27;99708.34;;;27.76;43.38
71149;BME280;59072;42.144;25.200;2023-05-23T13:10:53;99701.47;;;27.33;48.05
71149;BME280;59072;42.144;25.200;2023-05-23T13:13:19;99695.81;;;27.04;50.79
71149;BME280;59072;42.144;25.200;2023-05-23T13:15:45;99699.91;;;27.11;48.44
71149;BME280;59072;42.144;25.200;2023-05-23T13:18:10;99704.56;;;26.98;47.13
71149;BME280;59072;42.144;25.200;2023-05-23T13:20:36;99706.50;;;27.31;49.11
71149;BME280;59072;42.144;25.200;2023-05-23T13:23:02;99711.66;;;27.44;46.60